EDDH/HAM METAR and TAF weather

Enter ICAO airport designator
Example: see airport list
Station Type Date Time Source
EDDH METAR 2016/09/29 16:50 UTC NOAA

EDDH 291650Z 26021G38KT 220V290 3000 RA BKN009 14/13 Q1009 BECMG 24015KT 5000 NSW SCT012


Station Type Date Time Source
EDDH Decoded METAR 2016/09/29 16:50 UTC NOAA

Hamburg-Fuhlsbuettel, Germany (EDDH) 53-38N 010-00E 15M
Sep 29, 2016 - 12:50 PM EDT / 2016.09.29 1650 UTC
Wind: from the W (260 degrees) at 24 MPH (21 KT) gusting to 44 MPH (38 KT) (direction variable):0
Visibility: 1 mile(s):0
Sky conditions: mostly cloudy
Weather: rain
Temperature: 57 F (14 C)
Dew Point: 55 F (13 C)
Relative Humidity: 93%
Pressure (altimeter): 29.80 in. Hg (1009 hPa)
ob: EDDH 291650Z 26021G38KT 220V290 3000 RA BKN009 14/13 Q1009 BECMG 24015KT 5000 NSW SCT012
cycle: 17

Station Type Date Time Source
EDDH TAF 2016/09/29 12:27 UTC NOAA

TAF EDDH 291100Z 2912/3018 23015G30KT 9999 BKN025
TEMPO 2912/2918 23020G35KT PROB30
TEMPO 2916/2919 4800 RA BKN012
BECMG 2918/2921 23010KT PROB40
TEMPO 3007/3009 BKN012